createdAt,value
2018-11-05T00:01:36.045Z,98967.00
2018-11-05T00:03:40.106Z,98965.00
2018-11-05T00:05:44.131Z,98946.00
2018-11-05T00:07:49.014Z,98948.00
2018-11-05T00:09:54.371Z,98952.00
2018-11-05T00:11:59.710Z,98949.00
2018-11-05T00:14:04.585Z,98945.00
2018-11-05T00:16:08.598Z,98946.00
2018-11-05T00:18:13.356Z,98949.00
2018-11-05T00:20:18.503Z,98955.00
2018-11-05T00:22:23.744Z,98942.00
2018-11-05T00:24:27.759Z,98933.00
2018-11-05T00:26:32.809Z,98923.00
2018-11-05T00:28:36.809Z,98924.00
2018-11-05T00:30:40.838Z,98920.00
2018-11-05T00:32:45.084Z,98924.00
2018-11-05T00:34:49.215Z,98915.00
2018-11-05T00:36:53.306Z,98911.00
2018-11-05T00:38:57.314Z,98909.00
2018-11-05T00:41:02.491Z,98910.00
2018-11-05T00:43:07.607Z,98904.00
2018-11-05T00:45:12.832Z,98901.00
2018-11-05T00:47:16.815Z,98902.00
2018-11-05T00:49:20.814Z,98895.00
2018-11-05T00:51:24.841Z,98889.00
2018-11-05T00:53:28.821Z,98896.00
2018-11-05T00:55:34.084Z,98897.00
2018-11-05T00:57:39.301Z,98888.00
2018-11-05T00:59:43.333Z,98888.00
2018-11-05T01:01:47.758Z,98883.00
2018-11-05T01:03:51.759Z,98896.00
2018-11-05T01:05:55.937Z,98882.00
2018-11-05T01:07:59.915Z,98887.00
2018-11-05T01:10:04.060Z,98882.00
2018-11-05T01:12:08.745Z,98878.00
2018-11-05T01:14:12.743Z,98874.00
2018-11-05T01:16:16.715Z,98885.00
2018-11-05T01:18:20.684Z,98885.00
2018-11-05T01:20:24.732Z,98876.00
2018-11-05T01:22:29.858Z,98873.00
2018-11-05T01:24:33.862Z,98860.00
2018-11-05T01:26:37.857Z,98863.00
2018-11-05T01:28:44.157Z,98858.00
2018-11-05T01:30:49.321Z,98858.00
2018-11-05T01:32:53.308Z,98865.00
2018-11-05T01:34:57.297Z,98869.00
2018-11-05T01:37:01.308Z,98866.00
2018-11-05T01:39:08.233Z,98862.00
2018-11-05T01:41:13.375Z,98859.00
2018-11-05T01:43:17.425Z,98858.00
2018-11-05T01:45:23.106Z,98860.00
2018-11-05T01:47:28.817Z,98866.00
2018-11-05T01:49:34.195Z,98863.00
2018-11-05T01:51:38.549Z,98857.00
2018-11-05T01:53:42.570Z,98861.00
2018-11-05T01:55:47.828Z,98855.00
2018-11-05T01:57:51.854Z,98858.00
2018-11-05T01:59:55.896Z,98852.00
2018-11-05T02:02:00.819Z,98849.00
2018-11-05T02:04:05.315Z,98838.00
2018-11-05T02:06:09.341Z,98844.00
2018-11-05T02:08:13.800Z,98838.00
2018-11-05T02:10:19.597Z,98840.00
2018-11-05T02:12:23.619Z,98836.00
2018-11-05T02:14:27.728Z,98832.00
2018-11-05T02:16:31.780Z,98830.00
2018-11-05T02:18:35.818Z,98823.00
2018-11-05T02:20:39.895Z,98824.00
2018-11-05T02:22:43.938Z,98813.00
2018-11-05T02:24:47.964Z,98811.00
2018-11-05T02:26:53.058Z,98808.00
2018-11-05T02:28:57.126Z,98820.00
2018-11-05T02:31:01.203Z,98829.00
2018-11-05T02:33:05.252Z,98818.00
2018-11-05T02:35:10.807Z,98815.00
2018-11-05T02:37:15.640Z,98816.00
2018-11-05T02:39:19.701Z,98810.00
2018-11-05T02:41:25.583Z,98803.00
2018-11-05T02:43:29.696Z,98807.00
2018-11-05T02:45:34.902Z,98800.00
2018-11-05T02:47:38.953Z,98792.00
2018-11-05T02:49:42.996Z,98801.00
2018-11-05T02:51:48.809Z,98807.00
2018-11-05T02:53:52.851Z,98799.00
2018-11-05T02:55:56.892Z,98810.00
2018-11-05T02:58:00.913Z,98813.00
2018-11-05T03:00:08.933Z,98825.00
2018-11-05T03:02:13.333Z,98818.00
2018-11-05T03:04:17.360Z,98815.00
2018-11-05T03:06:21.415Z,98815.00
2018-11-05T03:08:25.441Z,98806.00
2018-11-05T03:10:30.849Z,98802.00
2018-11-05T03:12:34.910Z,98800.00
2018-11-05T03:14:38.953Z,98800.00
2018-11-05T03:16:43.006Z,98800.00
2018-11-05T03:18:47.034Z,98794.00
2018-11-05T03:20:51.094Z,98794.00
2018-11-05T03:22:55.970Z,98786.00
2018-11-05T03:24:59.986Z,98784.00
2018-11-05T03:27:04.037Z,98782.00
2018-11-05T03:29:08.071Z,98788.00
2018-11-05T03:31:12.127Z,98799.00
2018-11-05T03:33:16.201Z,98787.00
2018-11-05T03:35:20.289Z,98797.00
2018-11-05T03:37:24.293Z,98806.00
2018-11-05T03:39:28.370Z,98797.00
2018-11-05T03:41:33.384Z,98795.00
2018-11-05T03:43:37.390Z,98780.00
2018-11-05T03:45:41.450Z,98779.00
2018-11-05T03:47:45.837Z,98778.00
2018-11-05T03:49:49.898Z,98762.00
2018-11-05T03:51:54.735Z,98762.00
2018-11-05T03:53:58.781Z,98774.00
2018-11-05T03:56:04.143Z,98760.00
2018-11-05T03:58:08.101Z,98757.00
2018-11-05T04:00:14.207Z,98755.00
2018-11-05T04:02:18.308Z,98752.00
2018-11-05T04:04:22.379Z,98760.00
2018-11-05T04:06:26.478Z,98762.00
2018-11-05T04:08:30.525Z,98756.00
2018-11-05T04:10:36.105Z,98760.00
2018-11-05T04:12:40.123Z,98761.00
2018-11-05T04:14:44.150Z,98751.00
2018-11-05T04:16:48.190Z,98755.00
2018-11-05T04:18:52.282Z,98757.00
2018-11-05T04:20:56.316Z,98750.00
2018-11-05T04:23:00.317Z,98749.00
2018-11-05T04:25:04.745Z,98758.00
2018-11-05T04:27:08.814Z,98751.00
2018-11-05T04:29:14.108Z,98756.00
2018-11-05T04:31:18.158Z,98763.00
2018-11-05T04:33:22.185Z,98764.00
2018-11-05T04:35:26.253Z,98755.00
2018-11-05T04:37:30.256Z,98763.00
2018-11-05T04:39:35.121Z,98757.00
2018-11-05T04:41:40.463Z,98759.00
2018-11-05T04:43:44.469Z,98767.00
2018-11-05T04:45:48.525Z,98774.00
2018-11-05T04:47:52.569Z,98769.00
2018-11-05T04:49:57.738Z,98776.00
2018-11-05T04:52:02.684Z,98784.00
2018-11-05T04:54:07.198Z,98785.00
2018-11-05T04:56:11.223Z,98777.00
2018-11-05T04:58:15.309Z,98766.00
2018-11-05T05:00:19.356Z,98756.00
2018-11-05T05:02:23.385Z,98756.00
2018-11-05T05:04:27.415Z,98755.00
2018-11-05T05:06:31.435Z,98744.00
2018-11-05T05:08:35.895Z,98746.00
2018-11-05T05:10:39.948Z,98738.00
2018-11-05T05:12:44.369Z,98738.00
2018-11-05T05:14:48.402Z,98739.00
2018-11-05T05:16:52.482Z,98739.00
2018-11-05T05:18:56.518Z,98740.00
2018-11-05T05:21:00.539Z,98744.00
2018-11-05T05:23:05.120Z,98733.00
2018-11-05T05:25:08.931Z,98732.00
2018-11-05T05:27:12.991Z,98743.00
2018-11-05T05:29:17.030Z,98735.00
2018-11-05T05:31:21.074Z,98738.00
2018-11-05T05:33:25.110Z,98746.00
2018-11-05T05:35:29.739Z,98753.00
2018-11-05T05:37:33.810Z,98752.00
2018-11-05T05:39:37.832Z,98749.00
2018-11-05T05:41:41.857Z,98737.00
2018-11-05T05:43:45.909Z,98738.00
2018-11-05T05:45:49.961Z,98732.00
2018-11-05T05:47:54.049Z,98723.00
2018-11-05T05:49:58.107Z,98731.00
2018-11-05T05:52:02.321Z,98730.00
2018-11-05T05:54:06.445Z,98728.00
2018-11-05T05:56:10.583Z,98726.00
2018-11-05T05:58:14.597Z,98719.00
2018-11-05T06:00:19.040Z,98719.00
2018-11-05T06:02:23.058Z,98721.00
2018-11-05T06:04:27.116Z,98727.00
2018-11-05T06:06:31.201Z,98730.00
2018-11-05T06:08:36.296Z,98725.00
2018-11-05T06:10:40.467Z,98734.00
2018-11-05T06:12:44.564Z,98725.00
2018-11-05T06:14:48.592Z,98732.00
2018-11-05T06:16:52.621Z,98733.00
2018-11-05T06:18:56.650Z,98752.00
2018-11-05T06:21:00.669Z,98774.00
2018-11-05T06:23:04.714Z,98761.00
2018-11-05T06:25:08.835Z,98755.00
2018-11-05T06:27:12.834Z,98763.00
2018-11-05T06:29:16.850Z,98764.00
2018-11-05T06:31:20.999Z,98776.00
2018-11-05T06:33:25.055Z,98772.00
2018-11-05T06:35:29.218Z,98776.00
2018-11-05T06:37:33.174Z,98773.00
2018-11-05T06:39:37.213Z,98752.00
2018-11-05T06:41:41.878Z,98763.00
2018-11-05T06:43:45.901Z,98765.00
2018-11-05T06:45:49.957Z,98759.00
2018-11-05T06:47:54.060Z,98767.00
2018-11-05T06:49:58.090Z,98778.00
2018-11-05T06:52:02.110Z,98767.00
2018-11-05T06:54:06.226Z,98772.00
2018-11-05T06:56:10.282Z,98766.00
2018-11-05T06:58:14.310Z,98778.00
2018-11-05T07:00:20.693Z,98767.00
2018-11-05T07:02:24.704Z,98765.00
2018-11-05T07:04:28.762Z,98766.00
2018-11-05T07:06:32.777Z,98762.00
2018-11-05T07:08:37.139Z,98751.00
2018-11-05T07:10:41.197Z,98750.00
2018-11-05T07:12:45.653Z,98747.00
2018-11-05T07:14:49.708Z,98738.00
2018-11-05T07:16:53.759Z,98739.00
2018-11-05T07:18:58.159Z,98744.00
2018-11-05T07:21:01.862Z,98744.00
2018-11-05T07:23:06.020Z,98757.00
2018-11-05T07:25:12.082Z,98759.00
2018-11-05T07:27:17.221Z,98760.00
2018-11-05T07:29:21.275Z,98755.00
2018-11-05T07:31:25.405Z,98753.00
2018-11-05T07:33:29.519Z,98749.00
2018-11-05T07:35:33.527Z,98769.00
2018-11-05T07:37:37.594Z,98787.00
2018-11-05T07:39:41.659Z,98782.00
2018-11-05T07:41:45.736Z,98783.00
2018-11-05T07:43:49.807Z,98775.00
2018-11-05T07:45:53.868Z,98775.00
2018-11-05T07:47:59.439Z,98774.00
2018-11-05T07:50:03.823Z,98780.00
2018-11-05T07:52:07.823Z,98769.00
2018-11-05T07:54:11.877Z,98777.00
2018-11-05T07:56:15.999Z,98761.00
2018-11-05T07:58:20.066Z,98768.00
2018-11-05T08:00:29.491Z,98777.00
2018-11-05T08:02:33.582Z,98762.00
2018-11-05T08:04:38.048Z,98759.00
2018-11-05T08:06:42.098Z,98744.00
2018-11-05T08:08:46.188Z,98738.00
2018-11-05T08:10:50.238Z,98732.00
2018-11-05T08:12:54.364Z,98733.00
2018-11-05T08:14:58.390Z,98738.00
2018-11-05T08:17:02.499Z,98730.00
2018-11-05T08:19:07.623Z,98728.00
2018-11-05T08:21:11.675Z,98723.00
2018-11-05T08:23:15.722Z,98714.00
2018-11-05T08:25:19.795Z,98718.00
2018-11-05T08:27:23.874Z,98715.00
2018-11-05T08:29:27.970Z,98719.00
2018-11-05T08:31:32.018Z,98731.00
2018-11-05T08:33:36.097Z,98735.00
2018-11-05T08:35:40.152Z,98730.00
2018-11-05T08:37:45.368Z,98726.00
2018-11-05T08:39:49.506Z,98724.00
2018-11-05T08:41:53.545Z,98717.00
2018-11-05T08:43:58.589Z,98711.00
2018-11-05T08:46:02.631Z,98703.00
2018-11-05T08:48:06.696Z,98707.00
2018-11-05T08:50:13.190Z,98702.00
2018-11-05T08:52:17.153Z,98695.00
2018-11-05T08:54:21.214Z,98690.00
2018-11-05T08:56:25.237Z,98695.00
2018-11-05T08:58:29.369Z,98689.00
2018-11-05T09:00:38.691Z,98686.00
2018-11-05T09:02:42.874Z,98682.00
2018-11-05T09:04:47.085Z,98681.00
2018-11-05T09:06:51.081Z,98684.00
2018-11-05T09:08:55.194Z,98678.00
2018-11-05T09:10:59.943Z,98677.00
2018-11-05T09:13:03.624Z,98694.00
2018-11-05T09:15:10.083Z,98696.00
2018-11-05T09:17:14.165Z,98692.00
2018-11-05T09:19:18.239Z,98703.00
2018-11-05T09:21:22.270Z,98703.00
2018-11-05T09:23:26.306Z,98700.00
2018-11-05T09:25:30.401Z,98694.00
2018-11-05T09:27:34.507Z,98691.00
2018-11-05T09:29:39.687Z,98692.00
2018-11-05T09:31:43.771Z,98682.00
2018-11-05T09:33:47.856Z,98673.00
2018-11-05T09:35:51.981Z,98675.00
2018-11-05T09:37:56.015Z,98672.00
2018-11-05T09:40:00.706Z,98677.00
2018-11-05T09:42:04.885Z,98686.00
2018-11-05T09:44:08.973Z,98684.00
2018-11-05T09:46:13.034Z,98693.00
2018-11-05T09:48:17.150Z,98690.00
2018-11-05T09:50:21.451Z,98691.00
2018-11-05T09:52:25.525Z,98698.00
2018-11-05T09:54:29.912Z,98687.00
2018-11-05T09:56:34.173Z,98694.00
2018-11-05T09:58:38.250Z,98676.00
2018-11-05T10:00:42.367Z,98678.00
2018-11-05T10:02:51.927Z,98681.00
2018-11-05T10:04:56.168Z,98685.00
2018-11-05T10:07:01.116Z,98685.00
2018-11-05T10:09:08.338Z,98679.00
2018-11-05T10:11:12.420Z,98667.00
2018-11-05T10:13:16.501Z,98669.00
2018-11-05T10:15:21.215Z,98671.00
2018-11-05T10:17:25.369Z,98674.00
2018-11-05T10:19:29.478Z,98670.00
2018-11-05T10:21:33.558Z,98670.00
2018-11-05T10:23:37.631Z,98673.00
2018-11-05T10:25:41.803Z,98681.00
2018-11-05T10:27:46.161Z,98685.00
2018-11-05T10:29:51.150Z,98677.00
2018-11-05T10:31:55.234Z,98674.00
2018-11-05T10:33:59.308Z,98664.00
2018-11-05T10:36:03.411Z,98668.00
2018-11-05T10:38:07.473Z,98656.00
2018-11-05T10:40:15.300Z,98660.00
2018-11-05T10:42:19.279Z,98662.00
2018-11-05T10:44:23.319Z,98661.00
2018-11-05T10:46:27.432Z,98655.00
2018-11-05T10:48:31.480Z,98659.00
2018-11-05T10:50:35.590Z,98656.00
2018-11-05T10:52:39.656Z,98652.00
2018-11-05T10:54:43.690Z,98656.00
2018-11-05T10:56:47.753Z,98644.00
2018-11-05T10:58:51.810Z,98636.00
2018-11-05T11:01:01.214Z,98638.00
2018-11-05T11:03:10.669Z,98635.00
2018-11-05T11:05:14.717Z,98629.00
2018-11-05T11:07:18.828Z,98641.00
2018-11-05T11:09:22.884Z,98640.00
2018-11-05T11:11:26.913Z,98634.00
2018-11-05T11:13:30.982Z,98645.00
2018-11-05T11:15:35.065Z,98648.00
2018-11-05T11:17:39.482Z,98633.00
2018-11-05T11:19:43.777Z,98632.00
2018-11-05T11:21:47.844Z,98634.00
2018-11-05T11:23:51.831Z,98635.00
2018-11-05T11:25:55.910Z,98647.00
2018-11-05T11:28:00.295Z,98652.00
2018-11-05T11:30:04.406Z,98643.00
2018-11-05T11:32:08.502Z,98648.00
2018-11-05T11:34:13.230Z,98646.00
2018-11-05T11:36:17.298Z,98637.00
2018-11-05T11:38:22.215Z,98626.00
2018-11-05T11:40:26.262Z,98637.00
2018-11-05T11:42:30.345Z,98629.00
2018-11-05T11:44:34.366Z,98627.00
2018-11-05T11:46:38.740Z,98620.00
2018-11-05T11:48:42.830Z,98605.00
2018-11-05T11:50:46.885Z,98602.00
2018-11-05T11:52:51.469Z,98594.00
2018-11-05T11:54:55.186Z,98605.00
2018-11-05T11:56:59.474Z,98602.00
2018-11-05T11:59:03.555Z,98599.00
2018-11-05T12:01:07.637Z,98605.00
2018-11-05T12:03:11.794Z,98593.00
2018-11-05T12:05:15.973Z,98598.00
2018-11-05T12:07:20.653Z,98596.00
2018-11-05T12:09:24.701Z,98588.00
2018-11-05T12:11:28.793Z,98595.00
2018-11-05T12:13:32.878Z,98597.00
2018-11-05T12:15:36.978Z,98589.00
2018-11-05T12:17:41.701Z,98597.00
2018-11-05T12:19:45.729Z,98600.00
2018-11-05T12:21:49.774Z,98605.00
2018-11-05T12:23:53.846Z,98596.00
2018-11-05T12:25:57.963Z,98581.00
2018-11-05T12:28:02.009Z,98571.00
2018-11-05T12:30:11.594Z,98565.00
2018-11-05T12:32:15.697Z,98557.00
2018-11-05T12:34:19.685Z,98554.00
2018-11-05T12:36:23.832Z,98557.00
2018-11-05T12:38:28.119Z,98561.00
2018-11-05T12:40:32.145Z,98552.00
2018-11-05T12:42:36.267Z,98559.00
2018-11-05T12:44:40.431Z,98555.00
2018-11-05T12:46:44.395Z,98565.00
2018-11-05T12:48:48.428Z,98554.00
2018-11-05T12:50:52.589Z,98553.00
2018-11-05T12:52:56.630Z,98552.00
2018-11-05T12:55:00.657Z,98549.00
2018-11-05T12:57:04.729Z,98562.00
2018-11-05T12:59:08.777Z,98559.00
2018-11-05T13:01:12.797Z,98564.00
2018-11-05T13:03:16.818Z,98560.00
2018-11-05T13:05:21.071Z,98555.00
2018-11-05T13:07:25.179Z,98551.00
2018-11-05T13:09:29.242Z,98553.00
2018-11-05T13:11:33.296Z,98547.00
2018-11-05T13:13:37.331Z,98552.00
2018-11-05T13:15:41.361Z,98542.00
2018-11-05T13:17:45.416Z,98544.00
2018-11-05T13:19:49.663Z,98549.00
2018-11-05T13:21:53.761Z,98552.00
2018-11-05T13:23:57.858Z,98547.00
2018-11-05T13:28:06.240Z,98541.00
2018-11-05T13:30:10.901Z,98540.00
2018-11-05T13:32:15.058Z,98535.00
2018-11-05T13:34:19.264Z,98522.00
2018-11-05T13:36:23.323Z,98510.00
2018-11-05T13:38:27.465Z,98520.00
2018-11-05T13:40:31.449Z,98506.00
2018-11-05T13:42:35.502Z,98511.00
2018-11-05T13:44:39.549Z,98516.00
2018-11-05T13:46:43.940Z,98502.00
2018-11-05T13:48:48.235Z,98501.00
2018-11-05T13:50:51.649Z,98499.00
2018-11-05T13:52:55.725Z,98507.00
2018-11-05T13:55:00.174Z,98493.00
2018-11-05T13:57:03.786Z,98497.00
2018-11-05T13:59:07.893Z,98499.00
2018-11-05T14:01:11.947Z,98495.00
2018-11-05T14:03:15.991Z,98494.00
2018-11-05T14:05:19.997Z,98486.00
2018-11-05T14:07:24.077Z,98492.00
2018-11-05T14:09:28.139Z,98502.00
2018-11-05T14:11:32.178Z,98507.00
2018-11-05T14:13:36.274Z,98498.00
2018-11-05T14:15:40.341Z,98504.00
2018-11-05T14:17:45.005Z,98494.00
2018-11-05T14:19:49.031Z,98492.00
2018-11-05T14:21:53.064Z,98500.00
2018-11-05T14:23:57.135Z,98500.00
2018-11-05T14:26:01.330Z,98489.00
2018-11-05T14:28:06.855Z,98488.00
2018-11-05T14:30:11.881Z,98496.00
2018-11-05T14:32:15.947Z,98488.00
2018-11-05T14:34:19.926Z,98490.00
2018-11-05T14:36:23.898Z,98492.00
2018-11-05T14:38:28.003Z,98495.00
2018-11-05T14:40:31.982Z,98494.00
2018-11-05T14:42:36.265Z,98499.00
2018-11-05T14:44:40.253Z,98491.00
2018-11-05T14:46:44.310Z,98490.00
2018-11-05T14:48:48.338Z,98478.00
2018-11-05T14:50:52.557Z,98487.00
2018-11-05T14:52:56.435Z,98489.00
2018-11-05T14:55:01.100Z,98487.00
2018-11-05T14:57:05.502Z,98483.00
2018-11-05T14:59:09.521Z,98481.00
2018-11-05T15:01:13.578Z,98479.00
2018-11-05T15:03:17.587Z,98479.00
2018-11-05T15:05:21.621Z,98478.00
2018-11-05T15:07:25.725Z,98481.00
2018-11-05T15:09:29.946Z,98480.00
2018-11-05T15:11:34.059Z,98472.00
2018-11-05T15:13:38.090Z,98480.00
2018-11-05T15:15:42.157Z,98484.00
2018-11-05T15:17:47.568Z,98484.00
2018-11-05T15:19:51.903Z,98493.00
2018-11-05T15:21:55.720Z,98491.00
2018-11-05T15:23:59.788Z,98496.00
2018-11-05T15:26:03.953Z,98499.00
2018-11-05T15:28:07.995Z,98492.00
2018-11-05T15:30:14.864Z,98500.00
2018-11-05T15:32:18.896Z,98485.00
2018-11-05T15:34:23.080Z,98491.00
2018-11-05T15:36:30.270Z,98494.00
2018-11-05T15:38:34.394Z,98498.00
2018-11-05T15:40:38.449Z,98494.00
2018-11-05T15:42:42.534Z,98484.00
2018-11-05T15:44:47.541Z,98488.00
2018-11-05T15:46:51.605Z,98490.00
2018-11-05T15:48:55.673Z,98497.00
2018-11-05T15:50:59.799Z,98494.00
2018-11-05T15:53:04.076Z,98490.00
2018-11-05T15:55:08.139Z,98490.00
2018-11-05T15:57:12.226Z,98496.00
2018-11-05T15:59:16.311Z,98492.00
2018-11-05T16:01:20.368Z,98483.00
2018-11-05T16:03:24.417Z,98486.00
2018-11-05T16:05:28.596Z,98489.00
2018-11-05T16:07:32.696Z,98499.00
2018-11-05T16:09:37.236Z,98498.00
2018-11-05T16:11:41.263Z,98498.00
2018-11-05T16:13:45.322Z,98510.00
2018-11-05T16:15:49.478Z,98512.00
2018-11-05T16:17:53.530Z,98516.00
2018-11-05T16:19:57.560Z,98531.00
2018-11-05T16:22:01.639Z,98517.00
2018-11-05T16:24:05.814Z,98535.00
2018-11-05T16:26:10.081Z,98535.00
2018-11-05T16:28:14.107Z,98540.00
2018-11-05T16:30:19.460Z,98538.00
2018-11-05T16:32:25.042Z,98535.00
2018-11-05T16:34:29.190Z,98537.00
2018-11-05T16:36:33.408Z,98540.00
2018-11-05T16:38:37.632Z,98545.00
2018-11-05T16:40:41.566Z,98543.00
2018-11-05T16:42:46.728Z,98543.00
2018-11-05T16:44:50.783Z,98542.00
2018-11-05T16:46:55.473Z,98540.00
2018-11-05T16:48:59.579Z,98536.00
2018-11-05T16:51:03.624Z,98523.00
2018-11-05T16:53:08.032Z,98530.00
2018-11-05T16:55:13.355Z,98538.00
2018-11-05T16:57:17.508Z,98538.00
2018-11-05T16:59:21.570Z,98527.00
2018-11-05T17:01:26.051Z,98530.00
2018-11-05T17:03:29.735Z,98536.00
2018-11-05T17:05:33.799Z,98531.00
2018-11-05T17:07:37.915Z,98526.00
2018-11-05T17:09:42.018Z,98534.00
2018-11-05T17:11:46.190Z,98527.00
2018-11-05T17:13:50.221Z,98525.00
2018-11-05T17:15:54.321Z,98521.00
2018-11-05T17:17:58.367Z,98520.00
2018-11-05T17:20:02.397Z,98514.00
2018-11-05T17:22:06.445Z,98513.00
2018-11-05T17:24:10.533Z,98523.00
2018-11-05T17:26:14.692Z,98513.00
2018-11-05T17:28:18.702Z,98515.00
2018-11-05T17:30:23.366Z,98508.00
2018-11-05T17:32:28.527Z,98509.00
2018-11-05T17:34:32.613Z,98513.00
2018-11-05T17:36:36.630Z,98504.00
2018-11-05T17:38:40.725Z,98500.00
2018-11-05T17:40:44.846Z,98509.00
2018-11-05T17:42:48.881Z,98515.00
2018-11-05T17:44:53.040Z,98497.00
2018-11-05T17:46:57.175Z,98506.00
2018-11-05T17:49:01.284Z,98503.00
2018-11-05T17:51:06.158Z,98491.00
2018-11-05T17:53:10.219Z,98490.00
2018-11-05T17:55:15.032Z,98488.00
2018-11-05T17:57:19.131Z,98495.00
2018-11-05T17:59:23.481Z,98495.00
2018-11-05T18:01:28.733Z,98497.00
2018-11-05T18:03:32.911Z,98491.00
2018-11-05T18:05:36.971Z,98500.00
2018-11-05T18:07:41.130Z,98504.00
2018-11-05T18:09:45.312Z,98502.00
2018-11-05T18:11:49.438Z,98493.00
2018-11-05T18:13:53.890Z,98499.00
2018-11-05T18:15:57.905Z,98493.00
2018-11-05T18:18:01.947Z,98507.00
2018-11-05T18:20:07.890Z,98501.00
2018-11-05T18:22:11.997Z,98510.00
2018-11-05T18:24:16.191Z,98512.00
2018-11-05T18:26:20.262Z,98511.00
2018-11-05T18:28:24.398Z,98514.00
2018-11-05T18:30:29.030Z,98515.00
2018-11-05T18:32:33.038Z,98507.00
2018-11-05T18:34:37.081Z,98507.00
2018-11-05T18:36:41.221Z,98514.00
2018-11-05T18:38:45.359Z,98501.00
2018-11-05T18:40:49.471Z,98502.00
2018-11-05T18:42:53.617Z,98495.00
2018-11-05T18:44:57.646Z,98504.00
2018-11-05T18:47:01.910Z,98499.00
2018-11-05T18:49:06.076Z,98499.00
2018-11-05T18:51:10.118Z,98515.00
2018-11-05T18:53:14.205Z,98511.00
2018-11-05T18:55:18.523Z,98517.00
2018-11-05T18:57:22.555Z,98502.00
2018-11-05T18:59:26.634Z,98502.00
2018-11-05T19:01:30.722Z,98507.00
2018-11-05T19:03:34.857Z,98503.00
2018-11-05T19:05:38.919Z,98497.00
2018-11-05T19:07:43.050Z,98497.00
2018-11-05T19:09:47.154Z,98496.00
2018-11-05T19:11:51.238Z,98500.00
2018-11-05T19:13:55.863Z,98499.00
2018-11-05T19:16:00.063Z,98498.00
2018-11-05T19:18:04.148Z,98504.00
2018-11-05T19:20:09.628Z,98496.00
2018-11-05T19:22:13.882Z,98497.00
2018-11-05T19:24:18.069Z,98500.00
2018-11-05T19:26:22.017Z,98498.00
2018-11-05T19:28:26.100Z,98497.00
2018-11-05T19:30:30.288Z,98492.00
2018-11-05T19:32:34.275Z,98503.00
2018-11-05T19:34:38.315Z,98499.00
2018-11-05T19:36:42.410Z,98502.00
2018-11-05T19:38:46.503Z,98503.00
2018-11-05T19:40:50.583Z,98503.00
2018-11-05T19:42:55.294Z,98504.00
2018-11-05T19:44:59.367Z,98504.00
2018-11-05T19:47:03.437Z,98503.00
2018-11-05T19:49:07.503Z,98490.00
2018-11-05T19:51:11.574Z,98493.00
2018-11-05T19:53:15.636Z,98509.00
2018-11-05T19:55:20.146Z,98503.00
2018-11-05T19:57:24.231Z,98505.00
2018-11-05T19:59:28.373Z,98505.00
2018-11-05T20:01:32.507Z,98500.00
2018-11-05T20:03:36.613Z,98508.00
2018-11-05T20:05:40.699Z,98507.00
2018-11-05T20:07:45.327Z,98509.00
2018-11-05T20:09:50.581Z,98503.00
2018-11-05T20:11:54.693Z,98511.00
2018-11-05T20:13:58.874Z,98505.00
2018-11-05T20:16:03.013Z,98514.00
2018-11-05T20:18:07.121Z,98518.00
2018-11-05T20:20:12.797Z,98511.00
2018-11-05T20:22:16.898Z,98509.00
2018-11-05T20:24:20.982Z,98518.00
2018-11-05T20:26:25.362Z,98519.00
2018-11-05T20:28:31.377Z,98521.00
2018-11-05T20:30:35.731Z,98521.00
2018-11-05T20:32:40.268Z,98510.00
2018-11-05T20:34:44.339Z,98519.00
2018-11-05T20:36:48.397Z,98526.00
2018-11-05T20:38:52.502Z,98517.00
2018-11-05T20:40:56.631Z,98518.00
2018-11-05T20:43:00.652Z,98520.00
2018-11-05T20:45:04.769Z,98516.00
2018-11-05T20:47:09.097Z,98523.00
2018-11-05T20:49:13.180Z,98523.00
2018-11-05T20:51:17.206Z,98528.00
2018-11-05T20:53:21.289Z,98526.00
2018-11-05T20:55:25.362Z,98525.00
2018-11-05T20:57:29.446Z,98527.00
2018-11-05T20:59:33.530Z,98517.00
2018-11-05T21:01:37.610Z,98530.00
2018-11-05T21:03:41.830Z,98530.00
2018-11-05T21:05:45.884Z,98529.00
2018-11-05T21:07:50.026Z,98528.00
2018-11-05T21:09:54.122Z,98531.00
2018-11-05T21:11:58.258Z,98525.00
2018-11-05T21:14:02.420Z,98528.00
2018-11-05T21:16:06.486Z,98518.00
2018-11-05T21:18:12.126Z,98516.00
2018-11-05T21:20:16.422Z,98518.00
2018-11-05T21:22:20.496Z,98519.00
2018-11-05T21:24:25.328Z,98504.00
2018-11-05T21:26:29.435Z,98502.00
2018-11-05T21:28:33.502Z,98498.00
2018-11-05T21:30:37.577Z,98499.00
2018-11-05T21:32:41.621Z,98498.00
2018-11-05T21:34:45.739Z,98502.00
2018-11-05T21:36:49.803Z,98504.00
2018-11-05T21:38:53.942Z,98516.00
2018-11-05T21:40:58.068Z,98504.00
2018-11-05T21:43:02.122Z,98511.00
2018-11-05T21:45:08.277Z,98511.00
2018-11-05T21:47:12.388Z,98513.00
2018-11-05T21:49:16.405Z,98508.00
2018-11-05T21:51:20.444Z,98513.00
2018-11-05T21:53:24.488Z,98512.00
2018-11-05T21:55:28.643Z,98516.00
2018-11-05T21:57:32.734Z,98512.00
2018-11-05T21:59:36.786Z,98508.00
2018-11-05T22:01:41.162Z,98512.00
2018-11-05T22:03:45.238Z,98516.00
2018-11-05T22:05:49.331Z,98501.00
2018-11-05T22:07:53.409Z,98505.00
2018-11-05T22:09:57.446Z,98511.00
2018-11-05T22:12:01.498Z,98509.00
2018-11-05T22:14:05.946Z,98515.00
2018-11-05T22:16:10.021Z,98512.00
2018-11-05T22:18:14.737Z,98519.00
2018-11-05T22:20:18.813Z,98506.00
2018-11-05T22:22:22.935Z,98515.00
2018-11-05T22:24:26.963Z,98516.00
2018-11-05T22:26:32.058Z,98514.00
2018-11-05T22:28:36.131Z,98516.00
2018-11-05T22:30:40.186Z,98512.00
2018-11-05T22:32:44.579Z,98524.00
2018-11-05T22:34:48.674Z,98519.00
2018-11-05T22:36:52.733Z,98528.00
2018-11-05T22:38:56.785Z,98522.00
2018-11-05T22:41:00.861Z,98515.00
2018-11-05T22:43:05.194Z,98510.00
2018-11-05T22:45:10.067Z,98511.00
2018-11-05T22:47:14.111Z,98507.00
2018-11-05T22:49:18.158Z,98512.00
2018-11-05T22:51:22.181Z,98508.00
2018-11-05T22:53:27.054Z,98515.00
2018-11-05T22:55:32.239Z,98511.00
2018-11-05T22:57:36.283Z,98506.00
2018-11-05T22:59:40.387Z,98513.00
2018-11-05T23:01:49.921Z,98508.00
2018-11-05T23:03:53.978Z,98513.00
2018-11-05T23:05:58.410Z,98510.00
2018-11-05T23:08:02.458Z,98518.00
2018-11-05T23:10:06.681Z,98513.00
2018-11-05T23:12:10.717Z,98522.00
2018-11-05T23:14:14.762Z,98526.00
2018-11-05T23:16:18.825Z,98515.00
2018-11-05T23:18:22.881Z,98524.00
2018-11-05T23:20:26.983Z,98531.00
2018-11-05T23:22:31.031Z,98528.00
2018-11-05T23:24:35.181Z,98519.00
2018-11-05T23:26:39.201Z,98520.00
2018-11-05T23:28:43.237Z,98518.00
2018-11-05T23:30:47.301Z,98513.00
2018-11-05T23:32:52.465Z,98518.00
2018-11-05T23:34:56.558Z,98523.00
2018-11-05T23:37:00.603Z,98534.00
2018-11-05T23:39:06.982Z,98522.00
2018-11-05T23:41:11.287Z,98531.00
2018-11-05T23:43:15.337Z,98530.00
2018-11-05T23:45:19.382Z,98519.00
2018-11-05T23:47:27.530Z,98527.00
2018-11-05T23:49:32.747Z,98527.00
2018-11-05T23:51:36.776Z,98522.00
2018-11-05T23:53:40.797Z,98527.00
2018-11-05T23:55:44.869Z,98528.00
2018-11-05T23:57:49.622Z,98538.00
2018-11-05T23:59:53.694Z,98536.00
